Reese River Valley, Nevada Weather observations

Data are for 10 minute period ending at time listed.
 Day   Time   Solar   Ave.   Ave.  Ave.  Vector  Max.   Baro.   Total    
  of    of     Rad.   Air    Rel.  Wind   Wind   Wind  Press.  Precip.   
Year   Day            Temp.  Hum.  Speed  Dir.   Gust                    
2017   (PST)  Kw/m2    F      %     mph   deg.    mph    mb.     in.     
-------------------------------------------------------------------------
  20   15:30   0.10   35.4    65   14.5   228    19.4   788.8    0.00 
  20   15:40   0.07   35.2    65   14.6   219    21.9   788.7    0.00 
  20   15:50   0.05   35.0    66   14.9   217    21.0   788.7    0.00 
  20   16:00   0.06   34.8    68   14.5   216    22.9   788.7    0.00 
  20   16:10   0.07   34.7    69   14.4   212    20.7   788.7    0.00 
  20   16:20   0.03   34.5    69   14.2   216    19.8   788.7    0.00 
  20   16:30   0.02   34.3    69   13.7   220    22.4   788.8    0.00 
  20   16:40   0.01   34.3    68   15.9   248    23.7   789.3    0.00 
  20   16:50   0.00   29.8    84   23.5   284    34.0   789.7    0.00 
  20   17:00   0.00   27.6    92   14.7   271    26.9   790.2    0.00 
  20   17:10   0.00   27.4    93   10.2   261    16.1   790.4    0.00 
  20   17:20   0.00   27.3    94   10.3   260    19.8   790.6    0.00 
  20   17:30   0.00   27.3    94    7.1   224    13.3   790.7    0.00 
  20   17:40   0.00   27.3    95    4.2    98     6.9   790.8    0.00 
  20   17:50   0.00   27.4    95    2.6   105     6.4   791.0    0.00 
  20   18:00   0.00   27.3    95    5.4   121     7.7   791.0    0.00 
  20   18:10   0.00   27.3    96    6.9    99     8.2   790.9    0.00 
  20   18:20   0.00   27.2    96    6.2    79     7.8   791.0    0.00 
  20   18:30   0.00   27.3    96    7.6   101    16.7   791.1    0.00 
  20   18:40   0.00   27.3    95    7.0   107    12.1   791.1    0.00 
  20   18:50   0.00   27.3    95    6.7    94     9.1   791.0    0.00 
  20   19:00   0.00   27.2    95    5.4    92     6.9   791.0    0.00 
  20   19:10   0.00   27.0    95    4.5    88     7.2   791.0    0.00 
  20   19:20   0.00   26.9    95    2.5    56     3.8   791.1    0.00 
  20   19:30   0.00   26.9    95    1.5    44     3.1   791.1    0.00 
  20   19:40   0.00   26.4    95    3.1   277     3.9   791.1    0.00 
  20   19:50   0.00   26.0    95    1.7   272     2.7   791.1    0.00 
  20   20:00   0.00   25.5    95    1.4   257     2.0   791.1    0.00 
  20   20:10   0.00   23.9    94    3.1   234     4.5   791.2    0.00 
  20   20:20   0.00   20.5    92    4.6   193     6.2   791.2    0.00 
  20   20:30   0.00   18.7    94    4.9   157     5.6   791.3    0.00 
  20   20:40   0.00   17.6    92    5.9   160     7.9   791.4    0.00 
  20   20:50   0.00   16.3    93    5.9   158     7.7   791.4    0.00 
  20   21:00   0.00   17.1    93    5.9   162     7.2   791.4    0.00 
  20   21:10   0.00   17.2    93    4.7   171     6.3   791.5    0.00 
  20   21:20   0.00   18.0    94    4.9   176     6.5   791.5    0.00 
  20   21:30   0.00   19.1    94    5.0   180     6.1   791.5    0.00 
  20   21:40   0.00   19.4    94    4.7   180     5.8   791.6    0.00 
  20   21:50   0.00   19.6    94    4.6   193     6.1   791.6    0.00 
  20   22:00   0.00   21.2    95    6.0   217     8.0   791.8    0.00 
  20   22:10   0.00   22.8    96    6.7   203     8.9   791.8    0.00 
  20   22:20   0.00   25.2    96    7.3   199    10.3   791.9    0.00 
  20   22:30   0.00   26.3    96    7.0   223    10.4   792.1    0.00 
  20   22:40   0.00   26.1    96    5.1   239     9.1   792.4    0.00 
  20   22:50   0.00   26.7    96    9.1   269    16.8   792.5    0.00 
  20   23:00   0.00   26.5    96    9.2   276    16.4   792.6    0.00 
  20   23:10   0.00   26.5    96   10.3   276    18.2   792.7    0.00 
  20   23:20   0.00   26.5    96    3.9   235     8.3   792.7    0.00 
  20   23:30   0.00   26.4    96    4.1   136     5.5   792.6    0.00 
  20   23:40   0.00   25.8    95    4.8   112     6.0   792.6    0.00 
  20   23:50   0.00   24.6    95    4.6   106     5.5   792.6    0.00 
  21    0:00   0.00   24.0    95    3.6   100     4.5   792.7    0.00 
  21    0:10   0.00   23.0    94    4.7   221     7.2   792.7    0.00 
  21    0:20   0.00   22.6    95    3.8   239     7.2   792.8    0.00 
  21    0:30   0.00   22.1    94    4.5   195     6.6   792.8    0.00 
  21    0:40   0.00   21.3    93    4.3   177     7.5   792.9    0.00 
  21    0:50   0.00   19.5    93    6.9   162     8.9   793.0    0.00 
  21    1:00   0.00   19.8    94    4.5   182     5.8   793.1    0.00 
  21    1:10   0.00   18.9    92    5.3   196     6.6   793.3    0.00 
  21    1:20   0.00   17.4    92    5.9   179     7.5   793.5    0.00 
  21    1:30   0.00   16.1    92    3.9   211     7.7   793.6    0.00 
  21    1:40   0.00   14.4    91    6.6   207    10.4   793.8    0.00 
  21    1:50   0.00   13.7    91    6.3   182     7.8   794.0    0.00 
  21    2:00   0.00   13.1    91    7.9   168     8.8   794.0    0.00 
  21    2:10   0.00   14.0    92    6.7   179    10.2   794.1    0.00 
  21    2:20   0.00   13.7    91    7.1   181     9.9   794.2    0.00 
  21    2:30   0.00   14.7    93    7.7   202    10.2   794.3    0.00 
  21    2:40   0.00   15.5    93    8.2   206     9.3   794.4    0.00 
  21    2:50   0.00   17.1    94    8.7   206    11.1   794.5    0.00 
  21    3:00   0.00   17.0    92    7.3   214     9.2   794.6    0.00 
  21    3:10   0.00   17.2    93    5.8   216     9.5   794.9    0.00 
  21    3:20   0.00   18.5    94    7.1   216    10.1   795.0    0.00 
  21    3:30   0.00   19.5    94    6.7   195    10.7   795.0    0.00 
  21    3:40   0.00   20.4    94    5.6   199     8.6   795.2    0.00 
  21    3:50   0.00   19.1    92    5.2   218     7.6   795.4    0.00 
  21    4:00   0.00   19.0    93    5.0   210     8.4   795.4    0.00 
  21    4:10   0.00   19.0    92    2.2    15     5.3   795.7    0.00 
  21    4:20   0.00   18.8    92    2.8   243     6.4   795.9    0.00 
  21    4:30   0.00   18.8    92    4.6   216     6.9   795.9    0.00 
  21    4:40   0.00   18.7    92    4.9   179     6.0   796.0    0.00 
  21    4:50   0.00   17.9    91    5.6   170     7.7   796.0    0.00 
  21    5:00   0.00   18.3    92    6.2   194     9.8   796.2    0.00 
  21    5:10   0.00   19.1    92    5.9   204     8.8   796.4    0.00 
  21    5:20   0.00   18.8    91    6.1   171     7.2   796.6    0.00 
  21    5:30   0.00   18.4    91    2.6   153     6.6   796.9    0.00 
  21    5:40   0.00   20.2    92    4.2   156     6.5   797.1    0.00 
  21    5:50   0.00   20.6    91    5.4   169     7.2   797.3    0.00 
  21    6:00   0.00   20.6    89    4.2   163     5.2   797.4    0.00 
  21    6:10   0.00   18.4    90    2.4   136     5.3   797.6    0.00 
  21    6:20   0.00   20.1    90    4.2   142     7.1   797.9    0.00 
  21    6:30   0.00   20.4    88    6.1   153     8.4   797.9    0.00 
  21    6:40   0.00   20.1    88    5.6   129     8.0   798.1    0.00 
  21    6:50   0.00   18.3    82    3.9   173     5.4   798.3    0.00 
  21    7:00   0.00   17.3    88    4.5   192     7.2   798.4    0.00 
  21    7:10   0.01   16.5    87    7.2   198     8.0   798.5    0.00 
  21    7:20   0.01   14.7    84    5.6   174     7.4   798.6    0.00 
  21    7:30   0.02   12.2    87    4.9   216     8.9   798.9    0.00 
  21    7:40   0.02   12.6    88    5.0   204     9.0   799.0    0.00 
  21    7:50   0.03   13.0    87    6.7   206     9.1   799.2    0.00 
  21    8:00   0.08   13.5    87    5.1   195     6.7   799.5    0.00 
  21    8:10   0.22   15.6    87    4.0   171     6.6   799.7    0.00 
  21    8:20   0.14   18.7    87    4.1   205     5.9   799.9    0.00 
  21    8:30   0.18   20.3    86    4.4   211     7.4   800.3    0.00 
  21    8:40   0.14   21.0    85    5.3   221     7.8   800.5    0.00 
  21    8:50   0.14   22.4    85    2.1   163     5.4   800.7    0.00 
  21    9:00   0.20   23.3    86    0.5   305     2.0   800.9    0.00 
  21    9:10   0.22   23.6    85    2.9   244     4.7   801.1    0.00 
  21    9:20   0.15   25.0    84    3.9   226     5.9   801.3    0.00 
  21    9:30   0.19   25.0    83    6.5   226     8.8   801.5    0.00 
  21    9:40   0.13   25.3    83    5.7   230     8.7   801.8    0.00 
  21    9:50   0.09   25.0    81    6.0   217     8.5   802.0    0.00 
  21   10:00   0.11   25.4    82    6.3   217    10.6   802.2    0.00 
  21   10:10   0.13   26.2    79    5.4   201     7.2   802.4    0.00 
  21   10:20   0.11   26.6    79    5.2   207     7.7   802.5    0.00 
  21   10:30   0.11   26.9    74    6.5   219    10.3   802.7    0.00 
  21   10:40   0.11   27.3    69    6.0   215    12.2   802.9    0.00 
  21   10:50   0.12   28.1    64    6.0   222    16.1   803.0    0.00 
  21   11:00   0.12   28.8    58    8.5   234    15.3   803.1    0.00 
  21   11:10   0.13   28.6    59    7.6   237    12.5   803.2    0.00 
  21   11:20   0.13   28.2    60    6.3   237    15.3   803.3    0.00 
  21   11:30   0.14   28.9    57    6.8   229    12.8   803.4    0.00 
  21   11:40   0.17   28.8    58    4.4   215     7.4   803.5    0.00 
  21   11:50   0.15   29.7    60    2.3   188     3.7   803.6    0.00 
  21   12:00   0.16   28.8    61    2.4   130     3.4   803.6    0.00 
  21   12:10   0.17   29.8    56    3.8   202    11.3   803.5    0.00 
  21   12:20   0.33   31.6    52   10.8   252    20.0   803.6    0.00 
  21   12:30   0.56   33.3    50    9.7   256    13.6   803.6    0.00 
  21   12:40   0.60   33.9    49   10.8   259    17.3   803.5    0.01 
  21   12:50   0.58   34.3    47   13.3   245    23.8   803.4    0.03 
  21   13:00   0.55   34.0    49    9.5   260    16.4   803.5    0.01 
  21   13:10   0.48   33.9    49   10.1   261    16.4   803.5    0.01 
  21   13:20   0.52   33.6    50   11.5   275    19.8   803.6    0.00 
  21   13:30   0.59   33.8    50   10.8   273    15.5   803.7    0.00 
  21   13:40   0.59   34.4    50   10.7   262    17.2   803.9    0.00 
  21   13:50   0.61   35.0    47   12.6   261    19.9   804.1    0.00 
  21   14:00   0.54   35.0    47   11.7   260    18.3   804.1    0.00 
  21   14:10   0.50   34.9    47   13.0   242    19.4   804.1    0.00 
  21   14:20   0.48   35.4    47    9.6   242    17.2   804.3    0.00 
  21   14:30   0.45   35.4    46    8.8   240    17.2   804.4    0.00 
  21   14:40   0.46   36.1    45    6.6   253    17.2   804.7    0.00 
  21   14:50   0.42   36.0    44    7.3   246    12.2   804.8    0.01 
  21   15:00   0.39   35.9    44   10.6   237    20.4   804.9    0.00 
  21   15:10   0.33   35.6    45    9.6   249    17.6   805.0    0.00 
  21   15:20   0.27   35.2    45    8.4   246    14.1   805.1    0.00 

Return to Reese River Valley graphs page.


Western Regional Climate Center,wrcc@dri.edu